Time;durP1;ratioP1;P1;durP2;ratioP2;P2;SDS_P1;SDS_P2;PMS_P1;PMS_P2;Temp;Humidity;BMP_temperature;BMP_pressure;BME280_temperature;BME280_humidity;BME280_pressure;Samples;Min_cycle;Max_cycle;Signal;HPM_P1;HPM_P2
2021/04/09 00:00:47;;;;;;;7.95;5.78;;;2.00;74.10;;;;;;6338857;22;20059;-89
2021/04/09 00:03:13;;;;;;;9.98;5.93;;;2.00;74.20;;;;;;6338906;22;20460;-88
2021/04/09 00:05:40;;;;;;;9.52;5.97;;;2.00;74.20;;;;;;6339019;22;20326;-89
2021/04/09 00:08:06;;;;;;;9.88;5.65;;;2.00;74.80;;;;;;6339840;22;20107;-88
2021/04/09 00:10:32;;;;;;;9.20;5.80;;;2.10;74.30;;;;;;6339666;22;20409;-88
2021/04/09 00:12:58;;;;;;;10.65;5.93;;;2.10;74.20;;;;;;6340440;22;19991;-88
2021/04/09 00:15:24;;;;;;;9.57;6.18;;;2.10;74.00;;;;;;6339164;22;19998;-89
2021/04/09 00:17:52;;;;;;;8.20;5.68;;;2.10;74.20;;;;;;6313364;22;20088;-88
2021/04/09 00:20:20;;;;;;;8.80;6.50;;;2.10;74.20;;;;;;6319810;22;20015;-88
2021/04/09 00:22:46;;;;;;;11.43;5.70;;;2.00;74.40;;;;;;6326998;22;20009;-89
2021/04/09 00:25:14;;;;;;;7.18;5.25;;;2.10;74.30;;;;;;6357635;22;19995;-88
2021/04/09 00:27:40;;;;;;;8.60;6.13;;;2.00;74.10;;;;;;6355053;22;19997;-88
2021/04/09 00:30:09;;;;;;;10.23;6.90;;;2.00;74.30;;;;;;6320494;22;20002;-88
2021/04/09 00:32:34;;;;;;;9.02;6.60;;;2.10;74.30;;;;;;6313485;22;19995;-89
2021/04/09 00:35:00;;;;;;;8.98;6.35;;;2.10;74.30;;;;;;6347599;22;20002;-89
2021/04/09 00:37:26;;;;;;;10.30;6.15;;;2.00;74.50;;;;;;6341351;22;20023;-88
2021/04/09 00:39:52;;;;;;;9.68;6.32;;;2.00;74.40;;;;;;6338419;22;20091;-88
2021/04/09 00:42:19;;;;;;;11.20;6.13;;;2.00;74.20;;;;;;6338645;22;20006;-88
2021/04/09 00:44:45;;;;;;;9.45;6.03;;;2.00;74.30;;;;;;6312546;22;19999;-89
2021/04/09 00:47:11;;;;;;;8.80;5.97;;;2.00;74.30;;;;;;6312486;22;20103;-89
2021/04/09 00:49:37;;;;;;;9.07;5.80;;;2.00;74.10;;;;;;6312382;22;20017;-88
2021/04/09 00:52:04;;;;;;;7.57;5.80;;;1.90;74.50;;;;;;6312354;22;19995;-88
2021/04/09 00:54:30;;;;;;;9.63;6.65;;;1.90;74.20;;;;;;6312340;22;20019;-88
2021/04/09 00:56:57;;;;;;;10.15;6.70;;;1.90;74.30;;;;;;6338782;22;20006;-88
2021/04/09 00:59:25;;;;;;;9.02;6.22;;;1.80;74.10;;;;;;6312268;22;20018;-88
2021/04/09 01:01:50;;;;;;;9.88;6.80;;;1.80;74.30;;;;;;6312161;22;19994;-89
2021/04/09 01:04:16;;;;;;;8.35;5.38;;;1.80;74.60;;;;;;6338444;22;20003;-88
2021/04/09 01:06:42;;;;;;;12.00;6.13;;;1.70;74.60;;;;;;6340078;22;20002;-88
2021/04/09 01:09:08;;;;;;;8.27;5.22;;;1.70;74.50;;;;;;6338695;22;20385;-88
2021/04/09 01:11:33;;;;;;;10.80;6.80;;;1.60;74.70;;;;;;6312143;22;20067;-89
2021/04/09 01:13:59;;;;;;;10.13;6.53;;;1.60;75.00;;;;;;6338483;22;20487;-88
2021/04/09 01:16:33;;;;;;;13.50;7.65;;;1.60;74.90;;;;;;6338405;22;20479;-89
2021/04/09 01:19:31;;;;;;;12.88;7.22;;;1.50;75.30;;;;;;6311891;22;20011;-88
2021/04/09 01:22:02;;;;;;;10.13;7.05;;;1.50;75.50;;;;;;6279826;22;20426;-88
2021/04/09 01:24:58;;;;;;;9.45;6.90;;;1.50;75.70;;;;;;6312296;22;20010;-88
2021/04/09 01:27:45;;;;;;;11.88;7.15;;;1.50;75.80;;;;;;6312581;22;19999;-88
2021/04/09 01:30:33;;;;;;;12.13;6.53;;;1.40;75.40;;;;;;6312620;22;20321;-88
2021/04/09 01:33:01;;;;;;;10.05;6.50;;;1.40;75.70;;;;;;6312765;22;20405;-88
2021/04/09 01:35:29;;;;;;;12.82;7.20;;;1.40;75.60;;;;;;6312120;22;20010;-88
2021/04/09 01:38:06;;;;;;;11.68;7.07;;;1.40;75.70;;;;;;6312183;22;20010;-88
2021/04/09 01:40:35;;;;;;;11.23;7.82;;;1.40;75.90;;;;;;6311976;22;20003;-88
2021/04/09 01:43:06;;;;;;;16.15;9.30;;;1.40;76.00;;;;;;6312034;22;19998;-88
2021/04/09 01:45:32;;;;;;;14.23;8.52;;;1.30;75.70;;;;;;6312068;22;20002;-88
2021/04/09 01:47:59;;;;;;;17.73;11.07;;;1.30;75.90;;;;;;6312553;22;20003;-88
2021/04/09 01:50:30;;;;;;;19.58;11.75;;;1.30;76.00;;;;;;6312172;22;20007;-88
2021/04/09 01:52:57;;;;;;;18.90;11.27;;;1.20;76.10;;;;;;6312902;22;20364;-88
2021/04/09 01:55:23;;;;;;;31.75;16.88;;;1.20;75.90;;;;;;6312368;22;20334;-88
2021/04/09 01:57:50;;;;;;;45.92;23.75;;;1.10;75.90;;;;;;6342913;22;20002;-88
2021/04/09 02:00:20;;;;;;;41.72;22.48;;;1.10;76.20;;;;;;6324116;22;20062;-88
2021/04/09 02:02:47;;;;;;;35.83;19.83;;;1.00;76.60;;;;;;6324706;22;20001;-88
2021/04/09 02:05:22;;;;;;;31.05;17.30;;;1.00;76.40;;;;;;6323200;22;20003;-87
2021/04/09 02:07:50;;;;;;;25.40;15.00;;;0.90;77.40;;;;;;6323164;22;19999;-88
2021/04/09 02:10:18;;;;;;;24.83;12.93;;;0.90;77.10;;;;;;6318260;22;20014;-88
2021/04/09 02:12:45;;;;;;;20.27;11.27;;;0.80;76.90;;;;;;6325648;22;19995;-88
2021/04/09 02:15:13;;;;;;;17.02;10.05;;;0.80;77.30;;;;;;6331212;22;19998;-87
2021/04/09 02:17:39;;;;;;;16.27;10.43;;;0.90;77.80;;;;;;6322699;22;20018;-89
2021/04/09 02:20:14;;;;;;;13.88;8.63;;;0.80;77.40;;;;;;6346785;22;20007;-88
2021/04/09 02:22:41;;;;;;;10.65;7.90;;;0.90;77.20;;;;;;6325742;22;19999;-88
2021/04/09 02:25:08;;;;;;;13.20;9.50;;;0.90;77.20;;;;;;6325692;22;19995;-88
2021/04/09 02:27:34;;;;;;;13.20;7.57;;;0.90;77.50;;;;;;6315236;22;20003;-89
2021/04/09 02:30:00;;;;;;;14.15;7.72;;;0.90;77.60;;;;;;6314430;22;20013;-88
2021/04/09 02:32:26;;;;;;;14.45;8.52;;;0.90;77.20;;;;;;6313833;22;20052;-88
2021/04/09 02:34:52;;;;;;;14.27;8.70;;;0.90;77.20;;;;;;6339603;22;19999;-88
2021/04/09 02:37:19;;;;;;;14.60;7.07;;;0.90;77.30;;;;;;6340410;22;19999;-88
2021/04/09 02:39:52;;;;;;;13.32;7.85;;;0.90;77.30;;;;;;6313551;22;20326;-88
2021/04/09 02:42:18;;;;;;;12.90;6.40;;;0.90;77.20;;;;;;6341487;22;19999;-89
2021/04/09 02:44:44;;;;;;;9.90;6.20;;;0.90;77.30;;;;;;6341361;22;20090;-88
2021/04/09 02:47:22;;;;;;;13.23;6.40;;;0.90;77.40;;;;;;6339447;22;20006;-89
2021/04/09 02:49:55;;;;;;;9.52;6.60;;;0.90;77.40;;;;;;6313608;22;20003;-88
2021/04/09 02:52:30;;;;;;;9.93;6.25;;;1.00;77.70;;;;;;6314187;22;20424;-89
2021/04/09 02:54:58;;;;;;;11.15;7.07;;;1.00;77.60;;;;;;6341518;22;19995;-88
2021/04/09 02:57:26;;;;;;;11.15;6.05;;;1.00;78.10;;;;;;6313496;22;19995;-88
2021/04/09 02:59:54;;;;;;;10.80;7.38;;;1.00;77.70;;;;;;6340801;22;20000;-88
2021/04/09 03:02:22;;;;;;;11.13;8.00;;;1.00;78.10;;;;;;6313229;22;20078;-88
2021/04/09 03:04:48;;;;;;;10.88;7.25;;;1.10;78.30;;;;;;6313485;22;19995;-88
2021/04/09 03:07:15;;;;;;;9.07;6.10;;;1.10;77.90;;;;;;6313288;22;20006;-88
2021/04/09 03:09:41;;;;;;;12.52;7.28;;;1.10;77.80;;;;;;6340463;22;20002;-88
2021/04/09 03:12:15;;;;;;;10.45;6.93;;;1.10;77.50;;;;;;6339142;22;20099;-88
2021/04/09 03:14:48;;;;;;;12.23;6.77;;;1.20;77.90;;;;;;6314079;22;20002;-88
2021/04/09 03:17:34;;;;;;;9.18;6.55;;;1.20;77.80;;;;;;6340183;22;20430;-89
2021/04/09 03:19:59;;;;;;;8.43;5.97;;;1.20;78.50;;;;;;6313865;22;20287;-88
2021/04/09 03:22:25;;;;;;;10.10;6.90;;;1.20;77.80;;;;;;6339089;22;20001;-88
2021/04/09 03:24:51;;;;;;;11.68;6.45;;;1.20;77.70;;;;;;6339398;22;20003;-88
2021/04/09 03:27:16;;;;;;;9.57;6.18;;;1.20;77.40;;;;;;6340735;22;19998;-88
2021/04/09 03:29:43;;;;;;;11.05;6.72;;;1.30;77.60;;;;;;6339206;22;20002;-88
2021/04/09 03:32:12;;;;;;;11.25;7.25;;;1.30;77.70;;;;;;6340639;22;20009;-88
2021/04/09 03:34:38;;;;;;;7.07;5.80;;;1.30;77.90;;;;;;6313562;22;20003;-88
2021/04/09 03:37:04;;;;;;;9.38;7.03;;;1.30;77.40;;;;;;6320426;22;20020;-88
2021/04/09 03:39:30;;;;;;;10.88;6.07;;;1.30;77.60;;;;;;6352866;22;20007;-88
2021/04/09 03:41:56;;;;;;;13.02;7.10;;;1.30;77.70;;;;;;6351976;22;19995;-88
2021/04/09 03:44:21;;;;;;;15.07;8.75;;;1.40;77.80;;;;;;6350935;22;20003;-88
2021/04/09 03:46:47;;;;;;;13.70;8.65;;;1.40;77.90;;;;;;6345289;22;19999;-89
2021/04/09 03:49:13;;;;;;;13.30;8.63;;;1.40;77.90;;;;;;6339276;22;20015;-88
2021/04/09 03:51:39;;;;;;;13.60;8.05;;;1.40;77.80;;;;;;6339258;22;20093;-89
2021/04/09 03:54:05;;;;;;;12.15;8.60;;;1.50;77.70;;;;;;6338833;22;20045;-88
2021/04/09 03:56:31;;;;;;;13.50;9.10;;;1.50;77.70;;;;;;6339048;22;20078;-89
2021/04/09 03:58:56;;;;;;;12.82;8.20;;;1.50;77.70;;;;;;6339070;22;20091;-89
2021/04/09 04:01:27;;;;;;;13.48;8.68;;;1.60;77.70;;;;;;6339863;22;20399;-89
2021/04/09 04:03:52;;;;;;;13.20;8.63;;;1.60;77.90;;;;;;6312569;22;19999;-89
2021/04/09 04:06:18;;;;;;;16.00;9.43;;;1.60;77.70;;;;;;6338888;22;20085;-89
2021/04/09 04:08:45;;;;;;;13.80;9.35;;;1.70;77.70;;;;;;6339157;22;20095;-89
2021/04/09 04:11:10;;;;;;;13.55;10.18;;;1.70;77.60;;;;;;6312972;22;20010;-88
2021/04/09 04:13:36;;;;;;;14.40;9.38;;;1.80;77.60;;;;;;6338688;22;20326;-89
2021/04/09 04:16:02;;;;;;;13.00;8.55;;;1.80;77.40;;;;;;6340745;22;20125;-89
2021/04/09 04:18:28;;;;;;;12.73;8.02;;;1.90;77.30;;;;;;6312121;22;20017;-89
2021/04/09 04:20:53;;;;;;;14.95;8.45;;;1.90;77.20;;;;;;6339631;22;20010;-89
2021/04/09 04:23:19;;;;;;;12.50;8.50;;;2.00;77.10;;;;;;6339182;22;20021;-89
2021/04/09 04:25:45;;;;;;;11.20;6.97;;;2.10;77.10;;;;;;6339911;22;20002;-89
2021/04/09 04:28:11;;;;;;;12.00;7.68;;;2.20;77.00;;;;;;6340230;22;20001;-89
2021/04/09 04:30:37;;;;;;;11.77;7.97;;;2.30;76.90;;;;;;6313567;22;20030;-89
2021/04/09 04:33:02;;;;;;;12.98;8.57;;;2.30;76.70;;;;;;6338985;22;20010;-89
2021/04/09 04:35:29;;;;;;;18.92;9.13;;;2.40;76.50;;;;;;6341557;22;20006;-89
2021/04/09 04:37:56;;;;;;;13.05;7.95;;;2.50;76.30;;;;;;6312872;22;20086;-89
2021/04/09 04:40:22;;;;;;;13.88;8.63;;;2.60;76.20;;;;;;6312543;22;20010;-89
2021/04/09 04:42:48;;;;;;;16.55;8.90;;;2.70;76.00;;;;;;6339305;22;20002;-89
2021/04/09 04:45:16;;;;;;;12.05;8.00;;;2.70;75.90;;;;;;6339074;22;20314;-89
2021/04/09 04:47:42;;;;;;;13.05;7.53;;;2.80;75.80;;;;;;6312197;22;20085;-89
2021/04/09 04:50:08;;;;;;;12.85;8.63;;;2.90;75.70;;;;;;6338483;22;20083;-89
2021/04/09 04:52:34;;;;;;;16.73;9.07;;;3.00;75.40;;;;;;6312165;22;20082;-88
2021/04/09 04:54:59;;;;;;;15.13;8.88;;;3.10;75.10;;;;;;6338298;22;20495;-89
2021/04/09 04:57:25;;;;;;;14.82;9.70;;;3.20;74.90;;;;;;6340223;22;20077;-89
2021/04/09 04:59:51;;;;;;;15.95;9.70;;;3.30;74.70;;;;;;6317981;22;20011;-89
2021/04/09 05:02:16;;;;;;;13.35;9.32;;;3.40;74.40;;;;;;6338541;22;20002;-89
2021/04/09 05:04:42;;;;;;;11.40;7.97;;;3.40;74.30;;;;;;6338374;22;20038;-89
2021/04/09 05:07:08;;;;;;;14.63;9.27;;;3.50;74.00;;;;;;6339270;22;20002;-89
2021/04/09 05:09:34;;;;;;;15.07;8.65;;;3.60;73.90;;;;;;6338109;22;20114;-89
2021/04/09 05:11:59;;;;;;;14.80;8.07;;;3.70;73.60;;;;;;6338040;22;20003;-89
2021/04/09 05:14:25;;;;;;;14.25;8.23;;;3.80;73.60;;;;;;6348912;22;20284;-89
2021/04/09 05:16:51;;;;;;;12.70;8.90;;;3.80;73.20;;;;;;6358725;22;19990;-89
2021/04/09 05:19:17;;;;;;;11.73;7.82;;;3.90;73.10;;;;;;6357033;22;20023;-89
2021/04/09 05:21:43;;;;;;;13.15;8.93;;;4.00;72.90;;;;;;6356483;22;20054;-90
2021/04/09 05:24:09;;;;;;;11.57;8.38;;;4.10;72.70;;;;;;6359251;22;20006;-89
2021/04/09 05:26:35;;;;;;;12.68;8.50;;;4.20;72.50;;;;;;6315451;22;20054;-89
2021/04/09 05:29:00;;;;;;;12.43;8.82;;;4.30;72.20;;;;;;6340278;22;20421;-89
2021/04/09 05:31:26;;;;;;;14.57;9.27;;;4.40;72.00;;;;;;6339855;22;20003;-89
2021/04/09 05:33:54;;;;;;;12.35;8.90;;;4.40;71.90;;;;;;6341058;22;19998;-89
2021/04/09 05:36:21;;;;;;;15.90;9.27;;;4.60;71.90;;;;;;6340679;22;19999;-89
2021/04/09 05:38:55;;;;;;;13.98;9.60;;;4.70;71.50;;;;;;6338520;22;19995;-89
2021/04/09 05:41:24;;;;;;;13.23;8.48;;;4.70;71.30;;;;;;6313754;22;20009;-89
2021/04/09 05:43:50;;;;;;;12.23;8.02;;;4.80;71.70;;;;;;6312129;22;19998;-89
2021/04/09 05:46:16;;;;;;;12.10;8.75;;;5.00;71.80;;;;;;6339363;22;20343;-89
2021/04/09 05:48:44;;;;;;;17.10;9.30;;;5.20;71.60;;;;;;6340753;22;20007;-89
2021/04/09 05:51:10;;;;;;;23.75;9.85;;;5.30;70.70;;;;;;6314543;22;20010;-90
2021/04/09 05:53:39;;;;;;;17.70;10.75;;;5.40;70.20;;;;;;6314823;22;20003;-90
2021/04/09 05:56:05;;;;;;;18.17;10.70;;;5.50;70.10;;;;;;6314383;22;20030;-87
2021/04/09 05:58:31;;;;;;;16.45;9.48;;;5.60;70.30;;;;;;6314703;22;19995;-87
2021/04/09 06:00:56;;;;;;;13.93;9.15;;;5.70;70.40;;;;;;6338955;22;20013;-87
2021/04/09 06:03:22;;;;;;;13.77;8.55;;;5.90;70.10;;;;;;6340739;22;20027;-88
2021/04/09 06:05:48;;;;;;;16.35;8.32;;;6.00;69.90;;;;;;6341297;22;20038;-88
2021/04/09 06:08:13;;;;;;;11.90;8.57;;;6.20;69.50;;;;;;6341358;22;19994;-88
2021/04/09 06:10:40;;;;;;;11.40;8.50;;;6.30;69.10;;;;;;6340010;22;19999;-89
2021/04/09 06:13:29;;;;;;;11.23;8.95;;;6.40;68.70;;;;;;6339954;22;19995;-90
2021/04/09 06:15:55;;;;;;;14.55;8.63;;;6.60;68.80;;;;;;6313692;22;20414;-89
2021/04/09 06:18:21;;;;;;;14.32;8.43;;;6.70;68.60;;;;;;6339752;22;20038;-89
2021/04/09 06:20:47;;;;;;;12.75;8.32;;;6.90;68.00;;;;;;6341458;22;20007;-89
2021/04/09 06:23:13;;;;;;;8.57;6.93;;;7.00;67.40;;;;;;6313786;22;20006;-89
2021/04/09 06:25:38;;;;;;;15.40;9.10;;;7.10;67.50;;;;;;6339589;22;20030;-89
2021/04/09 06:28:04;;;;;;;11.38;7.70;;;7.30;67.10;;;;;;6339878;22;20333;-89
2021/04/09 06:30:30;;;;;;;14.00;8.43;;;7.40;66.90;;;;;;6340082;22;20007;-89
2021/04/09 06:32:56;;;;;;;11.82;8.43;;;7.50;65.90;;;;;;6340032;22;20010;-89
2021/04/09 06:35:22;;;;;;;13.13;8.73;;;7.50;64.90;;;;;;6340670;22;20002;-89
2021/04/09 06:37:48;;;;;;;13.40;9.32;;;7.60;64.60;;;;;;6339932;22;20311;-89
2021/04/09 06:40:14;;;;;;;14.27;9.30;;;7.50;62.30;;;;;;6340431;22;20003;-91
2021/04/09 06:42:42;;;;;;;10.93;8.10;;;7.40;62.30;;;;;;6314073;22;20007;-89
2021/04/09 06:45:10;;;;;;;10.30;8.25;;;7.30;62.30;;;;;;6314614;22;20044;-89
2021/04/09 06:47:36;;;;;;;10.40;7.38;;;7.30;62.90;;;;;;6313702;22;20041;-88
2021/04/09 06:50:04;;;;;;;13.68;9.40;;;7.30;63.50;;;;;;6340742;22;20002;-89
2021/04/09 06:52:29;;;;;;;13.32;10.15;;;7.30;62.10;;;;;;6314245;22;19995;-89
2021/04/09 06:54:55;;;;;;;12.73;9.02;;;7.10;60.90;;;;;;6345065;22;19995;-89
2021/04/09 06:57:23;;;;;;;11.73;10.00;;;7.10;61.50;;;;;;6313436;22;19999;-88
2021/04/09 06:59:51;;;;;;;10.77;9.30;;;7.10;61.70;;;;;;6314771;22;20038;-88
2021/04/09 07:02:32;;;;;;;;;;;;;;;;;;;;;
2021/04/09 07:05:07;;;;;;;12.68;8.88;;;7.00;62.00;;;;;;6346235;22;20080;-90
2021/04/09 07:07:50;;;;;;;10.57;7.47;;;7.10;62.70;;;;;;6364475;22;19983;-92
2021/04/09 07:10:16;;;;;;;9.15;7.20;;;7.20;62.90;;;;;;6366301;22;20003;-89
2021/04/09 07:12:44;;;;;;;9.93;7.97;;;7.30;62.20;;;;;;6366490;22;20021;-88
2021/04/09 07:15:16;;;;;;;9.27;7.13;;;7.50;62.30;;;;;;6339178;22;20006;-90
2021/04/09 07:17:48;;;;;;;12.25;7.70;;;7.60;61.90;;;;;;6335424;22;20018;-89
2021/04/09 07:20:32;;;;;;;;;;;;;;;;;;;;;
2021/04/09 07:23:01;;;;;;;13.15;8.10;;;7.80;61.70;;;;;;6344342;22;20035;-90
2021/04/09 07:25:31;;;;;;;9.57;7.57;;;8.00;61.70;;;;;;6350423;22;19999;-90
2021/04/09 07:28:18;;;;;;;8.20;7.00;;;8.10;61.70;;;;;;6345796;22;20106;-90
2021/04/09 07:30:51;;;;;;;9.50;7.10;;;8.20;61.30;;;;;;6315328;22;20034;-90
2021/04/09 07:33:19;;;;;;;9.02;7.32;;;8.30;60.90;;;;;;6315499;22;20006;-90
2021/04/09 07:35:48;;;;;;;14.57;8.95;;;8.30;61.00;;;;;;6340561;22;19999;-89
2021/04/09 07:38:39;;;;;;;19.38;9.57;;;8.40;60.30;;;;;;6312913;22;20006;-89
2021/04/09 07:41:07;;;;;;;10.70;8.32;;;8.40;60.50;;;;;;6313248;22;20014;-90
2021/04/09 07:43:39;;;;;;;12.20;8.25;;;8.50;61.00;;;;;;6313783;22;19995;-91
2021/04/09 07:46:06;;;;;;;10.82;8.18;;;8.70;60.40;;;;;;6340834;22;20006;-91
2021/04/09 07:48:34;;;;;;;10.18;8.25;;;8.70;59.70;;;;;;6341547;22;20318;-90
2021/04/09 07:51:02;;;;;;;14.52;8.80;;;8.80;59.60;;;;;;6312254;22;20007;-90
2021/04/09 07:53:32;;;;;;;12.23;9.25;;;8.80;59.00;;;;;;6313000;22;20006;-90
2021/04/09 07:56:09;;;;;;;13.82;9.43;;;8.90;59.80;;;;;;6311629;22;19998;-90
2021/04/09 07:58:37;;;;;;;14.48;7.65;;;8.80;58.60;;;;;;6311401;22;20009;-90
2021/04/09 08:01:05;;;;;;;11.13;8.93;;;8.90;59.90;;;;;;6311950;22;20010;-91
2021/04/09 08:03:33;;;;;;;11.90;8.10;;;9.00;59.40;;;;;;6341212;22;19995;-90
2021/04/09 08:06:18;;;;;;;12.15;8.18;;;9.20;59.60;;;;;;6315119;22;20136;-90
2021/04/09 08:08:47;;;;;;;;;;;9.40;57.80;;;;;;6341313;22;19998;-90
2021/04/09 08:11:33;;;;;;;12.40;7.80;;;9.50;58.40;;;;;;6313360;22;19986;-91
2021/04/09 08:14:12;;;;;;;12.27;9.85;;;9.70;59.00;;;;;;6311720;22;20287;-90
2021/04/09 08:16:45;;;;;;;10.77;7.43;;;9.90;58.30;;;;;;6339999;22;20018;-90
2021/04/09 08:19:22;;;;;;;13.18;8.77;;;10.00;58.80;;;;;;6340069;22;20829;-91
2021/04/09 08:21:53;;;;;;;14.80;11.07;;;10.20;59.40;;;;;;6312534;22;20010;-90
2021/04/09 08:24:21;;;;;;;12.30;8.77;;;10.50;57.10;;;;;;6284773;22;20071;-91
2021/04/09 08:26:49;;;;;;;11.15;8.20;;;10.50;58.10;;;;;;6311913;22;19998;-88
2021/04/09 08:29:22;;;;;;;11.32;9.10;;;10.70;58.20;;;;;;6340614;22;20352;-91
2021/04/09 08:31:48;;;;;;;8.75;7.63;;;10.80;57.30;;;;;;6313133;22;20003;-89
2021/04/09 08:34:19;;;;;;;10.85;8.10;;;10.90;57.50;;;;;;6341215;22;20022;-89
2021/04/09 08:36:46;;;;;;;11.15;7.65;;;11.00;57.10;;;;;;6340841;22;19991;-89
2021/04/09 08:39:17;;;;;;;9.80;6.95;;;11.20;57.70;;;;;;6337189;22;20120;-89
2021/04/09 08:41:45;;;;;;;9.10;7.32;;;11.40;57.60;;;;;;6340724;22;20059;-89
2021/04/09 08:44:13;;;;;;;11.27;8.80;;;11.60;57.50;;;;;;6313404;22;20006;-90
2021/04/09 08:46:40;;;;;;;10.95;8.73;;;11.60;55.60;;;;;;6313374;22;20028;-88
2021/04/09 08:49:07;;;;;;;9.10;8.07;;;11.60;56.60;;;;;;6312344;22;20030;-90
2021/04/09 08:51:37;;;;;;;9.40;7.47;;;11.40;55.30;;;;;;6314326;22;20026;-89
2021/04/09 08:54:22;;;;;;;12.75;9.60;;;11.30;56.40;;;;;;6320071;22;20003;-93
2021/04/09 08:56:49;;;;;;;10.65;8.70;;;11.00;53.90;;;;;;6343595;22;20452;-91
2021/04/09 08:59:29;;;;;;;10.95;8.63;;;10.70;53.70;;;;;;6320860;22;20007;-89
2021/04/09 09:02:37;;;;;;;12.18;8.50;;;10.50;54.50;;;;;;6330494;22;19999;-88
2021/04/09 09:05:06;;;;;;;10.50;7.22;;;10.10;53.90;;;;;;6283017;22;19998;-89
2021/04/09 09:07:43;;;;;;;13.95;7.93;;;10.00;54.90;;;;;;6355703;22;19998;-88
2021/04/09 09:10:22;;;;;;;10.73;8.45;;;10.00;55.10;;;;;;6312885;22;20422;-88
2021/04/09 09:13:03;;;;;;;10.95;8.27;;;10.00;52.20;;;;;;6340168;22;20033;-88
2021/04/09 09:15:52;;;;;;;11.23;8.07;;;10.00;53.30;;;;;;6312715;22;20059;-89
2021/04/09 09:18:24;;;;;;;10.10;7.95;;;10.10;52.40;;;;;;6311280;22;20015;-89
2021/04/09 09:21:25;;;;;;;10.23;7.32;;;10.20;52.80;;;;;;6313343;22;20007;-89
2021/04/09 09:23:56;;;;;;;12.18;8.55;;;10.20;51.40;;;;;;6313272;22;20032;-87
2021/04/09 09:26:27;;;;;;;10.30;7.90;;;10.00;52.40;;;;;;6339614;22;20026;-89
2021/04/09 09:29:18;;;;;;;10.75;9.32;;;10.00;53.10;;;;;;6312806;22;20006;-90
2021/04/09 09:32:04;;;;;;;9.50;7.80;;;10.10;50.80;;;;;;6311944;22;20152;-87
2021/04/09 09:34:33;;;;;;;10.82;8.50;;;10.10;50.80;;;;;;6312083;22;20056;-88
2021/04/09 09:37:38;;;;;;;;;;;;;;;;;;;;;
2021/04/09 09:40:06;;;;;;;8.98;7.03;;;10.40;52.40;;;;;;6341137;22;20380;-89
2021/04/09 09:42:33;;;;;;;9.80;7.68;;;10.70;52.10;;;;;;6311344;22;19998;-89
2021/04/09 09:45:07;;;;;;;8.25;6.50;;;10.90;51.60;;;;;;6312315;22;20094;-89
2021/04/09 09:47:34;;;;;;;9.88;8.20;;;10.90;50.50;;;;;;6312060;22;20499;-90
2021/04/09 09:50:08;;;;;;;7.20;5.90;;;10.80;49.50;;;;;;6312037;22;20007;-89
2021/04/09 09:52:59;;;;;;;10.18;7.97;;;10.80;50.70;;;;;;6312792;22;20028;-89
2021/04/09 09:55:40;;;;;;;10.77;8.98;;;11.00;49.20;;;;;;6311964;22;19999;-90
2021/04/09 09:58:36;;;;;;;7.93;7.13;;;11.10;49.80;;;;;;6313902;22;20007;-90
2021/04/09 10:01:06;;;;;;;8.38;6.97;;;11.20;47.90;;;;;;6313363;22;20090;-89
2021/04/09 10:03:37;;;;;;;11.35;8.55;;;11.10;49.60;;;;;;6312688;22;20006;-89
2021/04/09 10:06:19;;;;;;;13.23;9.45;;;11.00;49.50;;;;;;6312624;22;20003;-88
2021/04/09 10:08:45;;;;;;;12.23;8.85;;;10.90;49.20;;;;;;6312466;22;20013;-89
2021/04/09 10:11:19;;;;;;;9.95;7.40;;;10.70;49.10;;;;;;6340767;22;20380;-88
2021/04/09 10:13:46;;;;;;;;;;;10.70;49.90;;;;;;6313550;22;20003;-90
2021/04/09 10:16:22;;;;;;;9.73;6.90;;;10.80;50.50;;;;;;6311422;22;19926;-89
2021/04/09 10:18:59;;;;;;;8.35;5.82;;;11.00;50.70;;;;;;6340774;22;20081;-88
2021/04/09 10:21:28;;;;;;;6.13;5.18;;;11.30;50.60;;;;;;6339816;22;20006;-89
2021/04/09 10:24:13;;;;;;;10.30;8.55;;;11.60;50.00;;;;;;6312271;22;20013;-89
2021/04/09 10:26:49;;;;;;;10.10;8.02;;;11.90;46.40;;;;;;6339039;22;20078;-86
2021/04/09 10:29:25;;;;;;;9.02;6.95;;;12.00;47.00;;;;;;6311912;22;20410;-88
2021/04/09 10:31:52;;;;;;;9.38;7.20;;;12.10;47.20;;;;;;6311429;22;20107;-87
2021/04/09 10:34:22;;;;;;;11.23;8.80;;;12.10;47.50;;;;;;6312529;22;20053;-89
2021/04/09 10:36:49;;;;;;;9.07;6.53;;;12.00;46.80;;;;;;6340495;22;20502;-89
2021/04/09 10:39:18;;;;;;;10.77;9.43;;;11.90;47.40;;;;;;6315194;22;20392;-89
2021/04/09 10:41:47;;;;;;;9.23;7.70;;;11.70;45.90;;;;;;6335797;22;20100;-88
2021/04/09 10:44:29;;;;;;;8.90;7.70;;;11.40;47.10;;;;;;6362280;22;19995;-88
2021/04/09 10:47:00;;;;;;;12.57;8.30;;;11.10;46.50;;;;;;6332480;22;19991;-90
2021/04/09 10:49:29;;;;;;;8.52;6.80;;;10.90;47.40;;;;;;6339555;22;20026;-88
2021/04/09 10:52:06;;;;;;;7.28;6.25;;;10.80;47.50;;;;;;6331212;22;20021;-89
2021/04/09 10:54:37;;;;;;;8.15;6.35;;;10.80;48.10;;;;;;6319736;22;20045;-91
2021/04/09 10:57:10;;;;;;;8.18;6.70;;;10.90;47.70;;;;;;6317701;22;20287;-90
2021/04/09 10:59:44;;;;;;;9.40;6.97;;;10.90;47.40;;;;;;6318156;22;20003;-90
2021/04/09 11:02:39;;;;;;;8.10;6.47;;;10.90;47.10;;;;;;6296386;22;20010;-90
2021/04/09 11:05:24;;;;;;;7.07;5.55;;;10.90;47.20;;;;;;6345849;22;19999;-91
2021/04/09 11:08:34;;;;;;;7.97;5.75;;;10.90;47.30;;;;;;6337577;22;20007;-91
2021/04/09 11:11:12;;;;;;;7.28;5.50;;;11.00;46.80;;;;;;6355646;22;20050;-92
2021/04/09 11:13:43;;;;;;;8.13;5.43;;;11.00;45.40;;;;;;6359739;22;19994;-91
2021/04/09 11:16:22;;;;;;;6.82;5.28;;;11.00;46.20;;;;;;6298231;22;20430;-93
2021/04/09 11:22:36;;;;;;;8.05;6.20;;;11.10;46.00;;;;;;6279364;22;20374;-90
2021/04/09 11:25:32;;;;;;;7.18;6.15;;;11.20;46.40;;;;;;6278808;22;20000;-89
2021/04/09 11:28:00;;;;;;;6.65;5.38;;;11.20;46.00;;;;;;6273888;22;20079;-91
2021/04/09 11:30:37;;;;;;;9.10;8.02;;;11.30;48.10;;;;;;6283620;22;19984;-91
2021/04/09 11:33:04;;;;;;;8.18;6.55;;;11.50;46.00;;;;;;6283521;22;20048;-91
2021/04/09 11:35:35;;;;;;;7.13;5.72;;;11.50;48.00;;;;;;6254958;22;20008;-90
2021/04/09 11:38:11;;;;;;;8.55;6.43;;;11.80;48.60;;;;;;6278085;22;20318;-89
2021/04/09 11:40:58;;;;;;;9.73;7.03;;;12.00;47.00;;;;;;6278714;22;20038;-89
2021/04/09 11:43:29;;;;;;;7.75;6.70;;;12.00;46.80;;;;;;6282837;22;20082;-90
2021/04/09 11:45:57;;;;;;;8.38;7.00;;;12.00;44.80;;;;;;6278095;22;20018;-90
2021/04/09 11:48:34;;;;;;;8.73;6.00;;;11.90;45.20;;;;;;6278496;22;20062;-91
2021/04/09 11:51:19;;;;;;;10.27;6.82;;;11.70;46.00;;;;;;6279340;22;20003;-90
2021/04/09 11:54:06;;;;;;;9.23;6.68;;;11.60;44.40;;;;;;6276951;22;20007;-90
2021/04/09 11:56:47;;;;;;;8.10;6.07;;;11.60;44.40;;;;;;6278098;22;20052;-91
2021/04/09 11:59:21;;;;;;;6.25;5.38;;;11.50;46.00;;;;;;6276924;22;19999;-91
2021/04/09 12:01:49;;;;;;;9.00;5.97;;;11.50;45.90;;;;;;6251775;22;20004;-91
2021/04/09 12:04:39;;;;;;;6.00;4.63;;;11.40;45.60;;;;;;6277032;22;20003;-91
2021/04/09 12:07:21;;;;;;;4.95;3.88;;;11.40;45.60;;;;;;6270454;22;20028;-91
2021/04/09 12:09:56;;;;;;;4.47;3.83;;;11.30;45.20;;;;;;6277478;22;20085;-90
2021/04/09 12:12:26;;;;;;;5.15;4.22;;;11.40;45.00;;;;;;6278474;22;20041;-90
2021/04/09 12:14:57;;;;;;;5.72;4.65;;;11.40;44.80;;;;;;6277676;22;20010;-91
2021/04/09 12:17:25;;;;;;;6.90;5.68;;;11.40;45.40;;;;;;6276526;22;20047;-90
2021/04/09 12:19:54;;;;;;;9.52;5.97;;;11.60;45.50;;;;;;6300532;22;20026;-90
2021/04/09 12:22:20;;;;;;;8.73;6.82;;;11.70;45.30;;;;;;6280131;22;20008;-90
2021/04/09 12:24:51;;;;;;;7.88;6.38;;;11.80;44.50;;;;;;6291864;22;20019;-91
2021/04/09 12:27:19;;;;;;;9.02;7.22;;;11.90;44.90;;;;;;6302074;22;19996;-91
2021/04/09 12:29:45;;;;;;;8.70;6.93;;;11.80;43.90;;;;;;6301323;22;20026;-90
2021/04/09 12:32:20;;;;;;;7.60;6.35;;;11.60;44.20;;;;;;6301609;22;20025;-89
2021/04/09 12:34:48;;;;;;;7.22;5.90;;;11.50;45.20;;;;;;6300730;22;20004;-91
2021/04/09 12:37:25;;;;;;;10.30;6.93;;;11.50;45.50;;;;;;6291110;22;20003;-91
2021/04/09 12:40:14;;;;;;;9.77;7.05;;;11.50;45.50;;;;;;6280594;22;20041;-91
2021/04/09 12:42:40;;;;;;;8.43;6.45;;;11.50;43.40;;;;;;6279377;22;20003;-91
2021/04/09 12:45:09;;;;;;;9.10;6.63;;;11.30;44.50;;;;;;6279459;22;19999;-91
2021/04/09 12:47:38;;;;;;;7.65;6.22;;;11.20;43.60;;;;;;6277649;22;20004;-90
2021/04/09 12:50:09;;;;;;;7.90;5.88;;;11.00;43.30;;;;;;6253374;22;20105;-91
2021/04/09 12:52:35;;;;;;;6.38;5.18;;;10.90;43.90;;;;;;6278554;22;20006;-91
2021/04/09 12:55:30;;;;;;;7.28;4.70;;;10.90;43.70;;;;;;6279000;22;20000;-91
2021/04/09 12:58:15;;;;;;;7.78;5.45;;;11.00;44.10;;;;;;6277326;22;20006;-89
2021/04/09 13:00:45;;;;;;;6.30;4.70;;;11.00;43.40;;;;;;6278810;22;20415;-90
2021/04/09 13:03:11;;;;;;;6.75;3.95;;;11.20;43.50;;;;;;6279109;22;19996;-91
2021/04/09 13:05:37;;;;;;;6.60;5.00;;;11.30;43.30;;;;;;6276974;22;20057;-91
2021/04/09 13:08:04;;;;;;;6.10;3.95;;;11.50;43.50;;;;;;6279104;22;20436;-91
2021/04/09 13:10:30;;;;;;;5.65;3.58;;;11.70;43.60;;;;;;6278391;22;20519;-91
2021/04/09 13:12:56;;;;;;;5.30;4.60;;;12.20;44.40;;;;;;6280662;22;20003;-89